Time;durP1;ratioP1;P1;durP2;ratioP2;P2;SDS_P1;SDS_P2;PMS_P1;PMS_P2;Temp;Humidity;BMP_temperature;BMP_pressure;BME280_temperature;BME280_humidity;BME280_pressure;Samples;Min_cycle;Max_cycle;Signal;HPM_P1;HPM_P2
2022/05/26 00:01:47;;;;;;;5.73;2.90;;;17.30;68.60;;;20.03;51.75;101356.94;5131665;27;20646;-65
2022/05/26 00:04:14;;;;;;;4.50;3.13;;;17.30;68.70;;;20.05;51.72;101357.53;5147594;27;20197;-65
2022/05/26 00:06:40;;;;;;;3.67;3.20;;;17.30;68.70;;;20.06;51.54;101359.16;5097030;28;20217;-64
2022/05/26 00:09:07;;;;;;;4.30;2.63;;;17.30;68.60;;;20.10;51.31;101355.03;5044947;28;20209;-65
2022/05/26 00:11:37;;;;;;;5.07;3.30;;;17.30;68.60;;;20.14;51.37;101356.22;5068220;28;20197;-65
2022/05/26 00:14:08;;;;;;;5.03;3.33;;;17.30;68.60;;;20.15;51.68;101355.19;5076140;28;20198;-64
2022/05/26 00:16:35;;;;;;;3.43;2.97;;;17.30;69.10;;;20.13;52.01;101349.22;5025124;28;20232;-65
2022/05/26 00:21:35;;;;;;;4.13;2.90;;;17.30;69.10;;;20.14;51.84;101345.50;5172244;27;20388;-63
2022/05/26 00:24:03;;;;;;;8.97;3.60;;;17.40;69.10;;;20.19;51.82;101352.88;5151361;27;20190;-64
2022/05/26 00:26:30;;;;;;;6.13;3.50;;;17.40;69.10;;;20.21;51.62;101351.59;5119703;27;20241;-64
2022/05/26 00:28:57;;;;;;;4.17;3.27;;;17.30;69.10;;;20.20;51.58;101355.34;5170949;27;20189;-63
2022/05/26 00:31:24;;;;;;;3.43;2.60;;;17.40;69.20;;;20.22;51.61;101353.28;5147841;27;20195;-66
2022/05/26 00:33:50;;;;;;;4.63;3.40;;;17.40;69.20;;;20.23;51.58;101344.22;5114723;27;20247;-64
2022/05/26 00:36:37;;;;;;;4.60;3.40;;;17.40;69.40;;;20.25;52.02;101352.81;5146057;27;20723;-64
2022/05/26 00:42:04;;;;;;;4.47;3.97;;;17.40;70.00;;;20.25;51.92;101355.50;5172492;27;20640;-64
2022/05/26 00:44:34;;;;;;;6.03;3.83;;;17.40;70.10;;;20.28;51.93;101353.44;5130787;27;20549;-64
2022/05/26 00:47:09;;;;;;;5.90;3.80;;;17.40;70.30;;;20.23;52.42;101352.22;5097558;28;20195;-64
2022/05/26 00:49:48;;;;;;;5.50;4.17;;;17.40;70.20;;;20.21;51.93;101351.59;5087144;28;20262;-65
2022/05/26 00:52:18;;;;;;;6.60;4.67;;;17.40;70.20;;;20.21;52.63;101351.59;5075426;28;20673;-64
2022/05/26 00:54:49;;;;;;;6.13;3.87;;;17.40;70.50;;;20.16;52.81;101358.66;4984375;28;20216;-62
2022/05/26 00:57:23;;;;;;;4.37;3.63;;;17.40;70.80;;;20.11;52.63;101359.31;4888746;29;20202;-62
2022/05/26 00:59:49;;;;;;;4.77;4.27;;;17.40;70.50;;;20.16;52.81;101364.00;4612514;30;20239;-66
2022/05/26 01:04:55;;;;;;;5.03;4.53;;;17.30;70.80;;;20.03;53.36;101359.63;5163397;27;20849;-61
2022/05/26 01:07:27;;;;;;;6.03;4.90;;;17.30;71.30;;;20.00;53.19;101354.72;5079295;28;20577;-66
2022/05/26 01:09:55;;;;;;;6.03;3.93;;;17.30;71.00;;;20.03;53.23;101348.13;5113046;28;20203;-65
2022/05/26 01:12:23;;;;;;;5.37;4.40;;;17.30;70.80;;;20.07;53.40;101351.97;5121331;28;20206;-66
2022/05/26 01:14:55;;;;;;;4.63;4.17;;;17.30;71.00;;;20.07;52.98;101358.13;5101900;28;20220;-65
2022/05/26 01:17:37;;;;;;;6.03;4.80;;;17.30;71.10;;;20.02;53.05;101352.63;5034429;28;20277;-65
2022/05/26 01:20:28;;;;;;;4.30;3.90;;;17.30;71.10;;;20.01;53.25;101353.69;4885515;29;20199;-63
2022/05/26 01:23:34;;;;;;;4.93;4.53;;;17.30;71.10;;;19.89;54.26;101352.78;4789522;29;20255;-64
2022/05/26 01:29:30;;;;;;;7.00;5.13;;;17.30;71.80;;;19.98;53.51;101355.97;5172123;27;20645;-63
2022/05/26 01:32:08;;;;;;;6.90;5.80;;;17.30;71.70;;;19.95;54.05;101351.88;5094371;28;20270;-65
2022/05/26 01:34:49;;;;;;;6.50;4.87;;;17.30;72.00;;;19.93;54.15;101353.97;5102513;28;20203;-63
2022/05/26 01:37:27;;;;;;;4.93;4.43;;;17.30;72.00;;;19.97;53.79;101360.50;5090234;28;20237;-63
2022/05/26 01:40:05;;;;;;;5.43;4.93;;;17.30;72.00;;;20.00;54.10;101357.38;5023605;28;20198;-63
2022/05/26 01:42:47;;;;;;;8.37;5.00;;;17.30;72.20;;;20.02;54.06;101360.66;4865871;29;20255;-64
2022/05/26 01:48:31;;;;;;;8.93;4.67;;;17.30;72.90;;;19.91;54.69;101361.38;5214465;27;20619;-64
2022/05/26 01:51:03;;;;;;;6.40;4.80;;;17.30;72.60;;;19.97;54.37;101360.50;5175250;27;20281;-67
2022/05/26 01:53:44;;;;;;;7.27;5.10;;;17.30;72.70;;;19.92;54.85;101352.31;5192981;27;20192;-62
2022/05/26 01:56:20;;;;;;;8.30;5.57;;;17.30;73.20;;;19.94;54.60;101352.94;5160232;27;20234;-63
2022/05/26 01:58:53;;;;;;;7.27;5.17;;;17.30;73.30;;;19.93;54.53;101359.31;5103961;27;20644;-62
2022/05/26 02:01:27;;;;;;;9.63;6.97;;;17.20;73.10;;;19.82;55.70;101356.53;5044901;28;20198;-63
2022/05/26 02:03:59;;;;;;;6.20;5.70;;;17.20;74.00;;;19.78;55.36;101361.50;4977100;28;20202;-65
2022/05/26 02:10:21;;;;;;;6.40;5.80;;;17.20;73.70;;;19.82;55.55;101361.88;5171785;27;20629;-64
2022/05/26 02:12:54;;;;;;;8.60;6.70;;;17.10;74.10;;;19.79;55.43;101373.84;5132694;27;20191;-64
2022/05/26 02:15:30;;;;;;;6.63;6.03;;;17.10;74.30;;;19.77;55.45;101375.91;5128965;27;20219;-66
2022/05/26 02:18:04;;;;;;;8.23;6.17;;;17.10;74.40;;;19.80;55.19;101380.78;5108810;28;20221;-65
2022/05/26 02:20:41;;;;;;;6.20;5.60;;;17.10;74.60;;;19.79;55.43;101379.19;5079472;28;20251;-64
2022/05/26 02:23:17;;;;;;;6.60;5.60;;;17.00;74.50;;;19.81;55.59;101387.78;5014683;28;21994;-64
2022/05/26 02:25:45;;;;;;;6.77;5.57;;;17.00;74.80;;;19.86;55.22;101385.28;4923967;29;20229;-63
2022/05/26 02:31:58;;;;;;;8.10;4.97;;;17.00;75.00;;;19.82;55.37;101391.28;5155799;27;20554;-64
2022/05/26 02:34:26;;;;;;;9.83;5.97;;;17.00;75.20;;;19.82;55.45;101393.94;5111935;28;20195;-66
2022/05/26 02:36:58;;;;;;;8.03;6.13;;;17.00;75.60;;;19.81;55.69;101397.66;5109652;28;20196;-65
2022/05/26 02:39:24;;;;;;;6.07;5.57;;;16.90;76.10;;;19.77;56.08;101401.81;5113706;28;20207;-65
2022/05/26 02:41:55;;;;;;;7.23;6.43;;;16.90;76.40;;;19.70;56.62;101398.38;5098461;28;20192;-64
2022/05/26 02:44:23;;;;;;;6.93;6.30;;;16.90;76.90;;;19.62;56.86;101394.09;5076947;28;20219;-64
2022/05/26 02:47:12;;;;;;;7.40;6.07;;;16.80;76.70;;;19.53;56.54;101392.75;5105496;28;20207;-64
2022/05/26 02:49:41;;;;;;;6.70;6.00;;;16.80;77.50;;;19.55;57.13;101414.72;5012331;28;20201;-63
2022/05/26 02:52:06;;;;;;;7.23;6.00;;;16.80;77.90;;;19.55;57.24;101396.00;4849138;29;20731;-63
2022/05/26 02:56:51;;;;;;;7.80;6.10;;;16.80;77.40;;;19.48;57.33;101401.41;5152759;27;20643;-64
2022/05/26 02:59:33;;;;;;;7.00;5.83;;;16.70;77.30;;;19.48;57.04;101398.75;5111864;28;20278;-63
2022/05/26 03:02:09;;;;;;;6.17;5.30;;;16.70;77.70;;;19.47;57.26;101398.94;5111654;28;20308;-65
2022/05/26 03:04:43;;;;;;;6.13;5.63;;;16.70;77.70;;;19.47;57.42;101405.09;5110837;28;20200;-64
2022/05/26 03:07:15;;;;;;;6.47;5.57;;;16.70;77.90;;;19.47;57.10;101409.63;5092925;28;20207;-64
2022/05/26 03:09:43;;;;;;;5.30;4.87;;;16.60;77.70;;;19.50;57.43;101411.88;4995539;28;20218;-63
2022/05/26 03:12:24;;;;;;;6.83;5.47;;;16.60;77.80;;;19.50;57.43;101406.53;4970724;28;20219;-63
2022/05/26 03:18:06;;;;;;;5.00;4.30;;;16.60;78.10;;;19.52;57.23;101409.78;5171891;27;20637;-63
2022/05/26 03:20:35;;;;;;;4.67;4.30;;;16.70;77.70;;;19.47;57.29;101412.28;5131492;27;20194;-65
2022/05/26 03:23:02;;;;;;;4.30;3.90;;;16.70;77.50;;;19.48;57.39;101408.59;5112284;28;20253;-64
2022/05/26 03:25:29;;;;;;;4.63;3.87;;;16.60;77.50;;;19.44;57.46;101413.56;5118022;28;20223;-62
2022/05/26 03:27:56;;;;;;;3.90;3.60;;;16.60;77.70;;;19.44;57.29;101407.41;5083581;28;20328;-66
2022/05/26 03:30:22;;;;;;;4.20;3.73;;;16.60;77.70;;;19.41;57.17;101408.66;5088106;28;20192;-69
2022/05/26 03:32:49;;;;;;;4.23;3.83;;;16.60;77.50;;;19.39;57.54;101409.91;5118203;28;20194;-64
2022/05/26 03:43:34;;;;;;;4.17;3.87;;;16.60;77.90;;;19.46;57.30;101421.34;5172188;27;20637;-65
2022/05/26 03:46:02;;;;;;;5.53;4.30;;;16.60;78.30;;;19.50;57.39;101420.69;5115822;28;20223;-66
2022/05/26 03:48:29;;;;;;;4.27;3.77;;;16.60;78.20;;;19.53;57.27;101424.78;5114132;28;20218;-65
2022/05/26 03:50:56;;;;;;;4.53;4.13;;;16.60;78.30;;;19.55;57.06;101426.22;5147171;27;20527;-63
2022/05/26 03:53:27;;;;;;;4.00;3.70;;;16.60;78.20;;;19.56;57.18;101429.72;5023690;28;20216;-63
2022/05/26 03:55:55;;;;;;;5.33;3.77;;;16.60;78.20;;;19.55;57.08;101430.72;4973620;28;20363;-63
2022/05/26 03:58:23;;;;;;;7.60;4.60;;;16.60;78.00;;;19.56;57.21;101432.38;4936241;28;20241;-64
2022/05/26 04:00:50;;;;;;;7.60;4.40;;;16.60;77.90;;;19.55;57.29;101436.06;4969609;28;20203;-65
2022/05/26 04:05:55;;;;;;;6.73;5.47;;;16.60;78.00;;;19.51;57.04;101441.03;5158146;27;20958;-65
2022/05/26 04:08:22;;;;;;;7.03;4.77;;;16.70;78.00;;;19.47;57.25;101439.81;5130128;28;20224;-64
2022/05/26 04:10:48;;;;;;;5.30;4.80;;;16.60;78.10;;;19.45;57.35;101441.88;5126993;28;20207;-65
2022/05/26 04:13:15;;;;;;;5.73;5.07;;;16.60;78.30;;;19.43;57.33;101443.13;5110658;28;20644;-63
2022/05/26 04:15:42;;;;;;;6.60;5.77;;;16.60;78.20;;;19.41;57.33;101445.22;5079284;28;20687;-63
2022/05/26 04:18:09;;;;;;;7.77;6.00;;;16.50;78.10;;;19.38;57.49;101440.28;5049800;28;20201;-63
2022/05/26 04:20:36;;;;;;;8.27;5.80;;;16.50;78.30;;;19.36;57.49;101450.38;5056506;28;20197;-63
2022/05/26 04:23:03;;;;;;;7.63;5.30;;;16.50;78.30;;;19.35;57.55;101443.38;5062654;28;20197;-63
2022/05/26 04:25:30;;;;;;;8.73;6.07;;;16.50;78.20;;;19.35;57.71;101440.72;5053068;28;20542;-63
2022/05/26 04:30:35;;;;;;;7.97;5.53;;;16.50;78.60;;;19.37;57.62;101454.69;5161368;27;20952;-62
2022/05/26 04:33:01;;;;;;;11.00;6.43;;;16.50;78.70;;;19.38;57.79;101450.97;5148729;27;20190;-64
2022/05/26 04:35:35;;;;;;;8.53;6.43;;;16.50;78.80;;;19.39;57.43;101452.63;5122165;28;20234;-64
2022/05/26 04:38:02;;;;;;;8.37;6.80;;;16.50;78.70;;;19.39;57.54;101449.94;5120462;27;20866;-65
2022/05/26 04:40:29;;;;;;;8.40;6.30;;;16.50;78.50;;;19.40;57.75;101459.56;5130564;27;20200;-64
2022/05/26 04:42:55;;;;;;;8.37;5.77;;;16.60;78.60;;;19.42;57.35;101462.88;5133062;27;20688;-65
2022/05/26 04:45:22;;;;;;;10.27;6.97;;;16.60;78.40;;;19.46;57.40;101466.75;5146193;27;20685;-64
2022/05/26 04:49:20;;;;;;;9.27;6.47;;;16.60;78.40;;;19.38;57.79;101477.66;5029257;28;20206;-64
2022/05/26 04:54:25;;;;;;;8.60;6.13;;;16.60;78.60;;;19.62;57.49;101484.94;5171348;27;21149;-63
2022/05/26 04:56:56;;;;;;;8.57;6.20;;;16.70;78.80;;;19.71;57.16;101483.63;5130071;28;20652;-62
2022/05/26 04:59:22;;;;;;;11.13;6.77;;;16.70;78.60;;;19.79;57.11;101482.56;5108703;28;20200;-64
2022/05/26 05:01:49;;;;;;;12.07;7.03;;;16.80;78.50;;;19.84;56.83;101482.72;5129134;28;20187;-63
2022/05/26 05:04:16;;;;;;;8.03;6.93;;;16.80;78.40;;;19.88;57.05;101482.06;5071284;28;20207;-63
2022/05/26 05:06:43;;;;;;;13.00;7.27;;;16.80;78.40;;;19.92;56.82;101480.59;5082004;28;20219;-66
2022/05/26 05:09:10;;;;;;;12.00;7.27;;;16.90;78.30;;;19.93;56.84;101482.25;5105645;28;20192;-63
2022/05/26 05:11:37;;;;;;;11.53;7.20;;;17.00;78.20;;;19.96;56.95;101491.69;5103632;28;20198;-64
2022/05/26 05:14:04;;;;;;;12.70;7.50;;;17.00;78.10;;;19.96;56.85;101492.50;5097316;28;20274;-64
2022/05/26 05:19:09;;;;;;;13.70;8.33;;;17.00;78.10;;;20.07;56.18;101510.50;5171894;27;20653;-64
2022/05/26 05:21:43;;;;;;;11.50;6.97;;;17.10;77.70;;;20.10;56.44;101514.59;5121552;28;20648;-62
2022/05/26 05:24:17;;;;;;;14.43;7.73;;;17.10;77.60;;;20.15;56.46;101510.25;5087381;28;20200;-64
2022/05/26 05:26:52;;;;;;;10.70;7.50;;;17.20;77.60;;;20.20;56.08;101510.41;5090263;28;20212;-64
2022/05/26 05:29:25;;;;;;;8.80;6.83;;;17.20;77.50;;;20.25;56.30;101518.59;5036004;28;20388;-64
2022/05/26 05:31:59;;;;;;;7.57;6.27;;;17.30;77.40;;;20.31;56.33;101516.91;5017281;28;20199;-64
2022/05/26 05:34:33;;;;;;;14.73;7.70;;;17.30;77.30;;;20.39;55.93;101518.50;4926919;29;20215;-64
2022/05/26 05:37:07;;;;;;;12.47;7.40;;;17.40;77.40;;;20.46;55.75;101525.44;4808581;29;20233;-63
2022/05/26 05:39:48;;;;;;;10.73;7.17;;;17.40;77.10;;;20.51;55.52;101522.09;4745519;29;20284;-64
2022/05/26 05:44:53;;;;;;;12.80;7.20;;;17.50;76.90;;;20.59;55.12;101529.81;5167094;27;20959;-64
2022/05/26 05:47:19;;;;;;;10.43;7.33;;;17.60;76.50;;;20.61;54.82;101533.13;5130066;28;20191;-65
2022/05/26 05:49:48;;;;;;;10.67;6.97;;;17.60;76.00;;;20.65;55.34;101529.78;5129890;28;20571;-64
2022/05/26 05:52:22;;;;;;;13.33;7.37;;;17.60;75.80;;;20.69;54.32;101535.50;5129255;28;20708;-64
2022/05/26 05:54:50;;;;;;;12.33;6.73;;;17.60;75.10;;;20.72;54.13;101545.75;5113131;28;20298;-64
2022/05/26 05:57:17;;;;;;;10.87;6.23;;;17.60;74.80;;;20.73;54.19;101529.47;5068467;28;20212;-63
2022/05/26 05:59:44;;;;;;;12.73;6.43;;;17.70;74.50;;;20.77;54.42;101537.88;5060774;28;20232;-64
2022/05/26 06:02:55;;;;;;;12.53;6.37;;;17.70;74.50;;;20.76;53.66;101541.59;5110992;28;20641;-64
2022/05/26 06:05:36;;;;;;;11.27;5.67;;;17.70;74.30;;;20.83;53.93;101534.31;4832335;29;20345;-64
2022/05/26 06:10:40;;;;;;;12.03;6.57;;;17.80;73.80;;;20.98;52.48;101552.69;5172109;27;20625;-64
2022/05/26 06:13:07;;;;;;;12.23;5.30;;;17.80;73.10;;;21.06;52.63;101545.19;5140112;27;20299;-65
2022/05/26 06:15:34;;;;;;;9.07;5.47;;;17.90;72.60;;;21.16;52.14;101550.03;5133761;27;20336;-64
2022/05/26 06:18:01;;;;;;;11.77;5.67;;;18.00;72.70;;;21.19;52.12;101555.78;5149582;27;20219;-63
2022/05/26 06:20:27;;;;;;;9.53;5.73;;;18.10;71.80;;;21.16;51.76;101548.19;5132523;27;20204;-64
2022/05/26 06:22:54;;;;;;;8.07;4.70;;;18.10;70.40;;;21.19;51.40;101561.13;5046318;28;20570;-64
2022/05/26 06:25:21;;;;;;;13.77;5.40;;;18.20;70.30;;;21.24;50.89;101566.63;4904926;28;20549;-65
2022/05/26 06:30:31;;;;;;;12.47;5.13;;;18.20;70.00;;;21.34;50.17;101572.28;5161388;27;20551;-62
2022/05/26 06:38:36;;;;;;;8.07;4.60;;;18.40;66.80;;;21.43;48.50;101576.28;5123263;27;20205;-62
2022/05/26 06:43:48;;;;;;;8.50;4.50;;;18.40;65.40;;;21.49;48.19;101580.72;5030692;28;20198;-63
2022/05/26 06:46:16;;;;;;;9.70;4.20;;;18.40;66.10;;;21.49;48.15;101582.59;5089856;28;20224;-66
2022/05/26 06:48:42;;;;;;;9.07;4.63;;;18.40;65.00;;;21.50;48.01;101578.88;5051129;28;20228;-62
2022/05/26 06:53:48;;;;;;;9.00;3.40;;;18.50;66.20;;;21.66;47.00;101582.78;5179348;27;20610;-65
2022/05/26 06:56:15;;;;;;;7.27;3.73;;;18.60;63.60;;;21.71;46.35;101581.06;5134232;27;20296;-64
2022/05/26 06:58:42;;;;;;;9.20;4.10;;;18.60;62.80;;;21.76;46.53;101580.38;5128653;28;20187;-66
2022/05/26 07:01:14;;;;;;;10.03;3.60;;;18.70;62.80;;;21.83;46.69;101581.09;5130645;27;20214;-64
2022/05/26 07:03:41;;;;;;;7.30;4.20;;;18.80;63.10;;;21.88;46.58;101583.97;5128238;27;20250;-66
2022/05/26 07:06:14;;;;;;;7.40;3.67;;;18.80;62.90;;;21.94;45.78;101583.84;5054093;28;20299;-64
2022/05/26 07:08:40;;;;;;;8.00;3.07;;;18.90;61.90;;;22.04;44.91;101589.50;5095994;28;20207;-65
2022/05/26 07:13:59;;;;;;;9.57;3.70;;;19.00;60.50;;;22.14;43.99;101599.66;5171820;27;20634;-63
2022/05/26 07:16:26;;;;;;;6.40;2.50;;;19.10;58.80;;;22.09;43.58;101607.56;5131763;27;20221;-64
2022/05/26 07:18:55;;;;;;;7.40;2.70;;;19.20;58.40;;;22.12;42.67;101607.13;5150512;27;20195;-64
2022/05/26 07:21:22;;;;;;;5.43;2.53;;;19.20;57.20;;;22.25;42.54;101617.63;5144835;27;20210;-62
2022/05/26 07:23:49;;;;;;;4.93;2.37;;;19.20;57.50;;;22.41;42.93;101617.00;5107508;28;20201;-66
2022/05/26 07:26:16;;;;;;;5.87;2.63;;;19.30;57.60;;;22.54;41.91;101627.50;5043588;28;20817;-62
2022/05/26 07:28:44;;;;;;;8.23;2.30;;;19.40;56.70;;;22.62;41.38;101624.53;4987105;28;20255;-63
2022/05/26 07:34:57;;;;;;;6.37;2.57;;;19.40;56.40;;;22.77;41.42;101621.38;5166225;27;20973;-64
2022/05/26 07:42:56;;;;;;;8.63;2.80;;;19.80;55.00;;;23.18;40.01;101620.41;5027823;28;20199;-64
2022/05/26 07:45:24;;;;;;;6.57;2.03;;;19.90;54.40;;;23.16;39.13;101633.25;5037431;28;20215;-64
2022/05/26 07:47:50;;;;;;;7.20;2.23;;;19.90;53.10;;;23.08;39.33;101639.00;5042439;28;20202;-64
2022/05/26 07:50:20;;;;;;;2.90;2.07;;;19.90;52.70;;;23.08;39.35;101645.22;5026609;28;20194;-64
2022/05/26 07:55:25;;;;;;;5.47;2.10;;;19.90;53.30;;;23.29;38.84;101641.91;5161579;27;20940;-64
2022/05/26 07:57:56;;;;;;;4.47;1.93;;;20.00;52.60;;;23.41;38.61;101634.69;5085055;28;20200;-64
2022/05/26 08:00:23;;;;;;;3.90;2.53;;;20.10;52.80;;;23.53;37.90;101631.97;5121055;28;20199;-64
2022/05/26 08:02:50;;;;;;;6.07;1.97;;;20.20;52.10;;;23.67;37.40;101637.88;5129091;28;20237;-64
2022/05/26 08:05:17;;;;;;;6.27;2.03;;;20.30;50.40;;;23.79;36.16;101636.78;5107503;28;20277;-64
2022/05/26 08:07:44;;;;;;;6.87;2.10;;;20.30;49.60;;;24.38;35.86;101648.09;5073524;28;20189;-66
2022/05/26 08:10:11;;;;;;;5.37;2.13;;;20.50;50.00;;;25.07;34.38;101658.41;5092970;28;20556;-63
2022/05/26 08:12:39;;;;;;;4.53;1.67;;;20.80;48.50;;;25.57;33.33;101650.22;4994159;28;20303;-63
2022/05/26 08:15:06;;;;;;;4.07;1.60;;;21.20;47.40;;;25.88;32.23;101646.78;4966579;28;20230;-63
2022/05/26 08:20:11;;;;;;;3.53;1.50;;;21.50;45.50;;;27.16;29.60;101663.84;5171796;27;20609;-63
2022/05/26 08:22:40;;;;;;;3.67;1.60;;;22.30;43.30;;;28.09;29.08;101669.16;5150732;27;20197;-63
2022/05/26 08:25:09;;;;;;;2.87;1.33;;;22.80;43.20;;;29.19;28.01;101662.09;5148562;27;20224;-63
2022/05/26 08:27:35;;;;;;;3.20;1.57;;;23.40;42.60;;;30.22;26.58;101664.88;5140779;27;20656;-65
2022/05/26 08:30:05;;;;;;;4.87;1.80;;;24.00;40.70;;;30.46;24.55;101654.97;5102731;28;20250;-65
2022/05/26 08:32:32;;;;;;;2.80;1.30;;;24.70;37.10;;;30.06;25.15;101671.53;5085919;28;20196;-64
2022/05/26 08:35:02;;;;;;;2.70;1.30;;;25.10;36.40;;;29.39;25.69;101664.78;5113599;28;20225;-64
2022/05/26 08:40:35;;;;;;;3.93;1.80;;;25.10;35.20;;;28.33;27.05;101674.06;5171538;27;20641;-65
2022/05/26 08:43:05;;;;;;;1.93;1.43;;;24.70;36.00;;;28.53;27.55;101685.72;5129732;27;20190;-64
2022/05/26 08:45:38;;;;;;;3.67;1.37;;;24.60;37.50;;;29.01;26.51;101683.56;5128254;27;20211;-65
2022/05/26 08:48:05;;;;;;;4.80;1.63;;;24.50;37.10;;;29.14;26.21;101689.25;5134929;27;20230;-64
2022/05/26 08:50:35;;;;;;;3.10;1.50;;;24.60;36.80;;;28.82;26.31;101694.16;5137059;27;20225;-65
2022/05/26 08:53:10;;;;;;;3.93;2.00;;;24.40;36.20;;;28.18;26.91;101683.78;5142520;27;20206;-64
2022/05/26 08:55:44;;;;;;;3.77;1.40;;;24.30;36.50;;;27.53;28.19;101692.47;4986085;28;20607;-64
2022/05/26 08:58:10;;;;;;;3.07;1.30;;;24.00;37.30;;;27.09;28.68;101701.94;4796144;29;20208;-67
2022/05/26 09:00:37;;;;;;;2.10;1.20;;;23.70;38.10;;;26.75;28.85;101711.41;4638063;30;20234;-64
2022/05/26 09:05:21;;;;;;;2.40;1.20;;;23.40;38.40;;;26.28;29.59;101711.22;5157100;27;20940;-64
2022/05/26 09:13:39;;;;;;;3.23;2.00;;;22.80;41.00;;;26.22;31.11;101717.63;5045852;28;20240;-64
2022/05/26 09:16:06;;;;;;;3.07;1.80;;;22.70;41.30;;;26.14;30.70;101710.81;5044393;28;20218;-64
2022/05/26 09:18:33;;;;;;;3.43;1.50;;;22.60;41.20;;;26.00;31.09;101714.13;4953469;28;20209;-64
2022/05/26 09:21:21;;;;;;;4.20;1.53;;;22.50;41.50;;;25.74;31.01;101726.50;4901637;29;20224;-63
2022/05/26 09:23:47;;;;;;;2.63;1.60;;;22.40;41.90;;;25.55;31.95;101725.16;4705225;30;20250;-65
2022/05/26 09:28:56;;;;;;;2.30;1.10;;;22.30;42.20;;;25.18;31.75;101727.56;5171584;27;20629;-64
2022/05/26 09:31:31;;;;;;;3.73;1.30;;;22.10;42.40;;;24.96;32.51;101712.41;5110207;28;20294;-64
2022/05/26 09:34:03;;;;;;;3.57;1.37;;;21.90;42.70;;;24.91;32.43;101718.53;5097357;28;20207;-64
2022/05/26 09:36:36;;;;;;;2.90;1.57;;;21.80;42.80;;;25.06;32.54;101723.31;5098631;28;20259;-65
2022/05/26 09:39:30;;;;;;;3.60;1.67;;;21.80;43.50;;;25.68;31.90;101727.47;5025674;28;20256;-63
2022/05/26 09:41:59;;;;;;;3.03;1.53;;;21.90;43.90;;;26.62;30.50;101723.44;4949317;28;20287;-66
2022/05/26 09:44:48;;;;;;;3.47;1.53;;;22.10;43.60;;;26.70;30.77;101722.13;4893531;29;20200;-66
2022/05/26 09:47:18;;;;;;;5.90;1.67;;;22.40;42.60;;;26.42;30.71;101734.03;4720389;30;20226;-64
2022/05/26 09:52:28;;;;;;;2.03;1.30;;;22.50;42.10;;;26.06;30.75;101742.78;5150681;27;20639;-64
2022/05/26 09:55:14;;;;;;;5.07;1.50;;;22.50;41.80;;;25.74;31.46;101742.69;5103755;28;20295;-65
2022/05/26 09:57:41;;;;;;;3.43;1.30;;;22.40;42.20;;;25.48;32.10;101732.63;5045192;28;20206;-67
2022/05/26 10:00:33;;;;;;;1.23;1.10;;;22.20;42.10;;;25.16;32.22;101745.03;5021534;28;20191;-64
2022/05/26 10:03:07;;;;;;;3.17;1.53;;;22.10;42.90;;;25.25;32.83;101738.97;4976064;28;20500;-64
2022/05/26 10:05:46;;;;;;;1.97;1.40;;;21.90;43.80;;;25.99;31.56;101744.88;4925210;29;20244;-64
2022/05/26 10:08:25;;;;;;;2.70;1.23;;;22.00;43.80;;;27.78;29.85;101737.78;4802238;29;20609;-63
2022/05/26 10:10:52;;;;;;;1.93;1.57;;;22.40;44.20;;;29.70;27.83;101735.22;4623061;30;20563;-64
2022/05/26 10:16:10;;;;;;;3.23;1.47;;;23.10;44.90;;;32.07;24.56;101745.81;5157422;27;20630;-63
2022/05/26 10:19:06;;;;;;;4.10;1.70;;;24.70;39.60;;;31.59;24.00;101744.22;5112869;28;20203;-64
2022/05/26 10:21:57;;;;;;;1.70;1.03;;;25.30;38.10;;;30.67;24.74;101739.88;5056053;28;20204;-66
2022/05/26 10:24:57;;;;;;;5.93;1.57;;;25.50;36.70;;;30.74;25.27;101741.19;5094196;28;20187;-64
2022/05/26 10:27:46;;;;;;;3.83;1.83;;;25.60;36.90;;;30.57;24.97;101759.78;4967733;28;20207;-65
2022/05/26 10:30:34;;;;;;;2.83;1.67;;;25.60;36.00;;;30.07;25.84;101738.38;4823243;29;20212;-64
2022/05/26 10:34:31;;;;;;;2.20;1.47;;;25.50;35.90;;;30.79;24.98;101754.75;4733348;29;20210;-65
2022/05/26 10:40:08;;;;;;;2.53;1.30;;;25.80;35.90;;;31.22;24.64;101760.38;5171716;27;20654;-65
2022/05/26 10:42:41;;;;;;;1.90;1.13;;;26.00;35.40;;;30.60;24.74;101742.94;5101664;28;20195;-65
2022/05/26 10:45:17;;;;;;;3.37;1.63;;;25.90;35.30;;;29.91;25.20;101750.38;5103805;28;20212;-64
2022/05/26 10:47:58;;;;;;;2.77;1.20;;;25.70;35.20;;;29.29;26.26;101748.91;5067998;28;20579;-64
2022/05/26 10:50:35;;;;;;;4.47;1.73;;;25.50;35.50;;;28.62;26.70;101745.66;5019448;28;20195;-65
2022/05/26 10:53:15;;;;;;;4.20;1.40;;;25.20;35.80;;;27.96;27.63;101761.69;5009822;28;20206;-65
2022/05/26 10:55:54;;;;;;;2.43;1.50;;;24.80;36.00;;;27.40;28.35;101763.31;4968873;28;20271;-65
2022/05/26 10:58:20;;;;;;;3.10;1.73;;;24.40;36.90;;;27.26;28.79;101766.69;4841376;29;20612;-64
2022/05/26 11:00:46;;;;;;;1.77;1.40;;;24.10;38.00;;;27.37;29.40;101757.56;4812212;29;20198;-65
2022/05/26 11:05:50;;;;;;;1.27;1.10;;;24.00;38.90;;;27.88;28.73;101754.09;5159300;27;20400;-64
2022/05/26 11:08:34;;;;;;;7.00;1.20;;;24.00;39.50;;;28.07;28.70;101768.81;5111063;28;20271;-63
2022/05/26 11:11:07;;;;;;;2.70;1.20;;;24.00;39.50;;;28.10;28.76;101759.31;5088721;28;20203;-63
2022/05/26 11:13:45;;;;;;;2.23;1.10;;;24.10;39.40;;;27.97;27.62;101763.31;5067403;28;20554;-64
2022/05/26 11:19:31;;;;;;;2.57;1.10;;;24.10;36.90;;;27.34;28.30;101760.78;4901206;29;20231;-63
2022/05/26 11:22:01;;;;;;;3.70;1.17;;;24.00;37.10;;;27.19;28.30;101756.09;4757325;29;20666;-64
2022/05/26 11:24:27;;;;;;;8.40;1.20;;;23.80;37.30;;;27.01;28.32;101755.66;4660944;30;20301;-66
2022/05/26 11:26:53;;;;;;;2.23;1.20;;;23.80;37.40;;;26.87;28.89;101766.09;4601272;30;20631;-66
2022/05/26 11:38:06;;;;;;;2.90;1.23;;;23.50;39.90;;;26.69;29.25;101763.75;5079758;28;20668;-63
2022/05/26 11:40:43;;;;;;;2.40;1.23;;;23.30;39.20;;;26.47;30.23;101774.63;5066972;28;20197;-64
2022/05/26 11:43:10;;;;;;;4.67;1.17;;;23.20;39.40;;;26.20;30.41;101766.47;5040398;28;20200;-64
2022/05/26 11:45:50;;;;;;;1.93;1.03;;;23.20;39.20;;;25.95;30.36;101770.72;5053289;28;20212;-64
2022/05/26 11:48:43;;;;;;;2.20;1.30;;;23.00;39.40;;;25.72;30.84;101766.38;5041034;28;20504;-66
2022/05/26 11:51:24;;;;;;;1.50;1.10;;;22.80;40.20;;;25.57;30.77;101773.44;4902670;28;20247;-64
2022/05/26 11:56:49;;;;;;;2.27;1.00;;;22.70;40.20;;;25.35;31.36;101760.72;5208091;27;20643;-64
2022/05/26 11:59:46;;;;;;;2.90;1.33;;;22.40;40.80;;;25.20;31.56;101768.56;5152677;27;20643;-62
2022/05/26 12:02:32;;;;;;;2.53;1.17;;;22.40;41.10;;;25.09;31.80;101761.38;5118617;27;20223;-63
2022/05/26 12:05:43;;;;;;;3.90;1.40;;;22.20;41.40;;;25.12;32.12;101760.91;5080870;28;20661;-62
2022/05/26 12:08:37;;;;;;;3.30;1.43;;;22.20;42.00;;;25.26;31.86;101746.03;5004439;28;20641;-65
2022/05/26 12:11:09;;;;;;;3.30;1.40;;;22.20;42.00;;;25.39;32.17;101753.75;4921932;28;20255;-63
2022/05/26 12:16:28;;;;;;;2.53;1.13;;;22.30;42.10;;;25.44;31.61;101758.44;5153621;27;20953;-63
2022/05/26 12:19:00;;;;;;;2.20;1.20;;;22.30;42.20;;;25.53;31.96;101752.38;5111018;28;20538;-63
2022/05/26 12:21:48;;;;;;;2.03;1.17;;;22.30;42.20;;;25.63;31.73;101746.28;5090857;28;20235;-63
2022/05/26 12:25:12;;;;;;;2.00;1.20;;;22.40;42.40;;;25.93;31.29;101741.31;5028516;28;20206;-63
2022/05/26 12:28:26;;;;;;;3.50;0.90;;;22.50;42.40;;;26.12;31.63;101734.56;4948177;28;20194;-64
2022/05/26 12:31:11;;;;;;;4.73;1.23;;;22.70;42.00;;;26.17;31.33;101731.09;4774584;29;20657;-64
2022/05/26 12:34:06;;;;;;;2.20;1.00;;;22.80;41.40;;;26.10;30.99;101742.06;4607978;30;20660;-64
2022/05/26 12:36:51;;;;;;;3.27;1.40;;;22.90;41.50;;;25.97;31.57;101747.00;4486301;31;20260;-65
2022/05/26 12:42:04;;;;;;;2.03;1.20;;;22.80;41.50;;;25.90;31.81;101740.97;5171615;27;21129;-60
2022/05/26 12:45:20;;;;;;;1.77;1.10;;;22.80;42.20;;;25.97;32.18;101730.81;5113174;28;20650;-58
2022/05/26 12:48:18;;;;;;;2.00;1.57;;;22.80;42.70;;;26.05;31.19;101733.88;5048905;28;20553;-58